首页
METAR-TAF:

METAR-TAF

机场 :

南宁吴圩国际机场

南宁, 中华人民共和国

纬度: 22-49N, 经度: 108-21E, 海拔: 73米

当前天气观测

该预报发布于29分钟前的02:00 UTC
风速2节,风向多变
温度 31°C
湿度 71%
气压 1004 hPa
能见度10公里或以上
少量云层高于2000英尺

METAR: ZGNN 190200Z VRB01MPS 9999 FEW020 31/25 Q1004 NOSIG

时间: 10:29 (02:29 UTC)

预报

该预报发布于7小时和19分钟前的19:10 UTC
预报有效从19日的 00点(UTC)到 19日的 24点(UTC)
风速6节,风向东转东北
能見度: 6000
散云层高于3300英尺
短暂存在
从 19日的 05点(UTC)到 19日的 11点(UTC)
少量云层高于3000英尺, 积雨云.
散云层高于3300英尺

TAF: ZGNN 181910Z 1900/1924 06003MPS 6000 SCT033 TX33/1907Z TN25/1922Z TEMPO 1905/1911 FEW030CB SCT033

超过4000个机场的气象观测和天气预报(METAR&TAF报告)。

可查询的气象台以黄色和红色小点在地图上表示。

将鼠标移到小点上方,可查看气象台名称。

然后点击查看天气观测和预报。

如需切换地图:点击带黑十字的绿色按钮放大地图;点击带横线的绿色按钮缩小地图;或者点击绿色箭头查看邻近地区的地图。


METAR-TAF: